Time;durP1;ratioP1;P1;durP2;ratioP2;P2;SDS_P1;SDS_P2;PMS_P1;PMS_P2;Temp;Humidity;BMP_temperature;BMP_pressure;BME280_temperature;BME280_humidity;BME280_pressure;Samples;Min_cycle;Max_cycle;Signal;HPM_P1;HPM_P2
2022/08/29 00:03:45;;;;;;;;;;;16.40;99.90;;;15.31;100.00;95907.94;10485383;28;1912;-73
2022/08/29 00:08:48;;;;;;;;;;;16.40;99.90;;;15.29;100.00;95893.91;10478630;28;1871;-73
2022/08/29 00:13:51;;;;;;;;;;;16.40;99.90;;;15.22;100.00;95898.91;10484872;28;1956;-72
2022/08/29 00:18:54;;;;;;;;;;;16.40;99.90;;;15.23;100.00;95905.94;10477733;28;1913;-73
2022/08/29 00:23:57;;;;;;;;;;;16.40;99.90;;;15.23;100.00;95911.34;10483609;28;1903;-72
2022/08/29 00:29:00;;;;;;;;;;;16.30;99.90;;;15.21;100.00;95905.44;10479480;28;1843;-74
2022/08/29 00:34:03;;;;;;;;;;;16.30;99.90;;;15.19;100.00;95915.75;10478623;28;1989;-74
2022/08/29 00:39:06;;;;;;;;;;;16.20;99.90;;;15.29;100.00;95915.56;10489350;28;2138;-73
2022/08/29 00:44:11;;;;;;;;;;;16.30;99.90;;;15.32;100.00;95923.06;10486591;28;1981;-73
2022/08/29 00:49:14;;;;;;;;;;;16.30;99.90;;;15.32;100.00;95917.66;10487888;28;1806;-73
2022/08/29 00:54:17;;;;;;;;;;;16.40;99.90;;;15.18;100.00;95914.16;10485291;28;2001;-73
2022/08/29 00:59:20;;;;;;;;;;;16.30;99.90;;;15.19;100.00;95910.34;10488009;28;1888;-72
2022/08/29 01:04:22;;;;;;;;;;;16.30;99.90;;;15.09;100.00;95906.72;10487404;28;1901;-72
2022/08/29 01:09:26;;;;;;;;;;;16.30;99.90;;;15.06;100.00;95907.31;10491027;28;1923;-72
2022/08/29 01:14:29;;;;;;;;;;;16.20;99.90;;;14.99;100.00;95898.78;10488396;28;1989;-72
2022/08/29 01:19:32;;;;;;;;;;;16.20;99.90;;;14.95;100.00;95896.94;10487008;28;1925;-71
2022/08/29 01:24:35;;;;;;;;;;;16.10;99.90;;;14.90;100.00;95900.56;10484818;28;2000;-72
2022/08/29 01:29:38;;;;;;;;;;;16.00;99.90;;;14.89;100.00;95898.97;10489598;28;1923;-73
2022/08/29 01:34:41;;;;;;;;;;;16.00;99.90;;;14.81;100.00;95896.94;10485515;28;1953;-71
2022/08/29 01:39:48;;;;;;;;;;;15.90;99.90;;;14.78;100.00;95905.66;10486475;28;1859;-72
2022/08/29 01:44:51;;;;;;;;;;;15.90;99.90;;;14.74;100.00;95899.22;10487553;28;1907;-72
2022/08/29 01:49:54;;;;;;;;;;;15.80;99.90;;;14.75;100.00;95892.69;10488233;28;1897;-71
2022/08/29 01:54:57;;;;;;;;;;;15.80;99.90;;;14.89;100.00;95896.25;10484803;28;1959;-72
2022/08/29 02:00:00;;;;;;;;;;;15.90;99.90;;;14.84;100.00;95893.66;10484862;28;1954;-73
2022/08/29 02:05:02;;;;;;;;;;;15.90;99.90;;;14.79;100.00;95894.53;10490042;28;1914;-73
2022/08/29 02:10:07;;;;;;;;;;;15.90;99.90;;;14.68;100.00;95889.59;10483951;28;1946;-73
2022/08/29 02:15:10;;;;;;;;;;;15.80;99.90;;;14.60;100.00;95888.34;10487865;28;1922;-71
2022/08/29 02:20:13;;;;;;;;;;;15.80;99.90;;;14.54;100.00;95889.53;10480327;28;1894;-71
2022/08/29 02:30:37;;;;;;;;;;;15.60;99.90;;;14.46;100.00;95891.03;10489320;28;1966;-72
2022/08/29 02:35:40;;;;;;;;;;;15.50;99.90;;;14.42;100.00;95887.25;10487281;28;1905;-72
2022/08/29 02:40:44;;;;;;;;;;;15.60;99.90;;;14.47;100.00;95891.81;10481652;28;1890;-73
2022/08/29 02:45:47;;;;;;;;;;;15.60;99.90;;;14.46;100.00;95882.91;10488922;28;1886;-76
2022/08/29 02:50:50;;;;;;;;;;;15.50;99.90;;;14.43;100.00;95888.88;10468027;28;1890;-73
2022/08/29 02:55:52;;;;;;;;;;;15.50;99.90;;;14.39;100.00;95885.16;10481367;28;1977;-71
2022/08/29 03:00:55;;;;;;;;;;;15.50;99.90;;;14.32;100.00;95884.75;10480524;28;2022;-73
2022/08/29 03:05:58;;;;;;;;;;;15.50;99.90;;;14.33;100.00;95889.03;10486142;28;2039;-73
2022/08/29 03:11:01;;;;;;;;;;;15.40;99.90;;;14.24;100.00;95891.59;10482694;28;1905;-75
2022/08/29 03:16:04;;;;;;;;;;;15.60;99.90;;;14.25;100.00;95897.81;10481883;28;2139;-71
2022/08/29 03:21:09;;;;;;;;;;;15.30;99.90;;;14.31;100.00;95904.75;10480162;28;1954;-71
2022/08/29 03:26:12;;;;;;;;;;;15.40;99.90;;;14.26;100.00;95896.72;10486200;28;1858;-73
2022/08/29 03:31:15;;;;;;;;;;;15.40;99.90;;;14.24;100.00;95897.00;10480976;28;1782;-74
2022/08/29 03:36:18;;;;;;;;;;;15.40;99.90;;;14.15;100.00;95897.97;10484074;28;1971;-73
2022/08/29 03:41:21;;;;;;;;;;;15.30;99.90;;;14.20;100.00;95906.00;10482185;28;1878;-73
2022/08/29 03:46:25;;;;;;;;;;;15.20;99.90;;;14.13;100.00;95900.16;10474669;28;1905;-73
2022/08/29 03:51:30;;;;;;;;;;;15.20;99.90;;;14.07;100.00;95896.72;10484394;28;1897;-71
2022/08/29 03:56:33;;;;;;;;;;;15.20;99.90;;;14.05;100.00;95909.72;10480414;28;1918;-71
2022/08/29 04:01:36;;;;;;;;;;;15.10;99.90;;;14.13;100.00;95917.19;10480271;28;1973;-71
2022/08/29 04:06:39;;;;;;;;;;;15.20;99.90;;;14.23;100.00;95921.63;10463800;28;1874;-74
2022/08/29 04:11:42;;;;;;;;;;;15.30;99.90;;;14.03;100.00;95915.41;10484410;28;1981;-71
2022/08/29 04:16:45;;;;;;;;;;;15.20;99.90;;;13.93;100.00;95920.16;10497737;28;1910;-75
2022/08/29 04:21:47;;;;;;;;;;;15.10;99.90;;;13.88;100.00;95923.75;10492176;28;1944;-71
2022/08/29 04:26:50;;;;;;;;;;;14.90;99.90;;;13.86;100.00;95917.00;10491143;28;1834;-71
2022/08/29 04:31:53;;;;;;;;;;;14.90;99.90;;;13.81;100.00;95920.59;10486751;28;1910;-72
2022/08/29 04:36:58;;;;;;;;;;;14.90;99.90;;;13.84;100.00;95925.41;10491707;28;1976;-72
2022/08/29 04:42:01;;;;;;;;;;;14.90;99.90;;;13.83;100.00;95929.22;10490390;28;1897;-75
2022/08/29 04:47:04;;;;;;;;;;;14.80;99.90;;;13.88;100.00;95937.25;10489172;28;1925;-72
2022/08/29 04:52:06;;;;;;;;;;;14.90;99.90;;;14.06;100.00;95936.47;10486493;28;1894;-72
2022/08/29 04:57:09;;;;;;;;;;;15.00;99.90;;;14.22;100.00;95933.53;10489234;28;2025;-77
2022/08/29 05:02:12;;;;;;;;;;;15.00;99.90;;;14.46;100.00;95942.41;10490522;28;1834;-78
2022/08/29 05:07:15;;;;;;;;;;;15.30;99.90;;;14.87;100.00;95944.47;10487044;28;1866;-78
2022/08/29 05:12:19;;;;;;;;;;;15.50;99.90;;;15.24;100.00;95934.63;10487194;28;1987;-76
2022/08/29 05:17:22;;;;;;;;;;;15.80;99.90;;;15.53;100.00;95935.16;10492022;28;1970;-79
2022/08/29 05:22:25;;;;;;;;;;;16.20;99.90;;;16.00;100.00;95933.13;10482180;28;2003;-75
2022/08/29 05:27:28;;;;;;;;;;;16.50;99.90;;;16.34;100.00;95934.53;10492930;28;1956;-75
2022/08/29 05:32:30;;;;;;;;;;;16.80;99.90;;;16.76;100.00;95927.88;10486827;28;1967;-70
2022/08/29 05:37:34;;;;;;;;;;;17.20;99.90;;;17.18;100.00;95925.75;10488105;28;1975;-68
2022/08/29 05:42:37;;;;;;;;;;;17.50;99.90;;;17.40;100.00;95924.91;10484661;28;1989;-70
2022/08/29 05:47:39;;;;;;;;;;;17.70;99.90;;;17.56;100.00;95926.88;10486419;28;1871;-69
2022/08/29 05:52:42;;;;;;;;;;;17.90;99.90;;;17.69;100.00;95918.94;10482851;28;1907;-69
2022/08/29 05:57:48;;;;;;;;;;;18.10;99.90;;;17.81;100.00;95933.56;10487096;28;1906;-69
2022/08/29 06:02:53;;;;;;;;;;;18.30;99.90;;;18.06;100.00;95936.63;10485656;28;1889;-71
2022/08/29 06:07:56;;;;;;;;;;;18.40;99.90;;;18.40;100.00;95938.63;10485365;28;1836;-69
2022/08/29 06:12:59;;;;;;;;;;;18.60;99.90;;;18.46;100.00;95936.53;10486473;28;1878;-69
2022/08/29 06:18:02;;;;;;;;;;;18.80;99.90;;;18.76;100.00;95927.41;10487543;28;1910;-69
2022/08/29 06:23:05;;;;;;;;;;;19.00;99.90;;;18.83;100.00;95941.38;10482326;28;1909;-69
2022/08/29 06:28:07;;;;;;;;;;;19.20;99.90;;;18.94;100.00;95925.47;10484536;28;2211;-73
2022/08/29 06:33:10;;;;;;;;;;;19.20;99.90;;;18.93;100.00;95939.44;10487453;28;1857;-67
2022/08/29 06:38:13;;;;;;;;;;;19.40;99.90;;;18.74;100.00;95934.31;10484824;28;1914;-68
2022/08/29 06:43:16;;;;;;;;;;;19.50;99.90;;;18.70;100.00;95939.59;10483736;28;1875;-74
2022/08/29 06:48:19;;;;;;;;;;;19.50;99.90;;;19.06;100.00;95933.78;10486595;28;1905;-68
2022/08/29 06:53:25;;;;;;;;;;;19.60;99.90;;;18.69;100.00;95946.16;10484284;28;1926;-68
2022/08/29 06:58:34;;;;;;;;;;;19.60;99.90;;;19.25;100.00;95947.06;10486568;28;1967;-68
2022/08/29 07:03:36;;;;;;;;;;;19.70;99.90;;;19.28;100.00;95951.06;10484114;28;1960;-69
2022/08/29 07:08:40;;;;;;;;;;;19.90;99.90;;;19.50;100.00;95955.47;10497726;28;1909;-74
2022/08/29 07:13:58;;;;;;;;;;;20.00;99.90;;;19.78;100.00;95953.16;10483079;28;1981;-72
2022/08/29 07:19:00;;;;;;;;;;;20.10;99.90;;;19.96;100.00;95955.47;10487013;28;1929;-70
2022/08/29 07:24:03;;;;;;;;;;;20.40;99.90;;;20.46;100.00;95949.25;10478434;28;1922;-69
2022/08/29 07:29:06;;;;;;;;;;;20.50;99.90;;;20.77;100.00;95950.78;10481956;28;1957;-67
2022/08/29 07:34:09;;;;;;;;;;;20.80;99.90;;;20.88;100.00;95951.97;10481450;28;1925;-68
2022/08/29 07:39:11;;;;;;;;;;;21.10;99.90;;;20.55;100.00;95956.56;10482262;28;1976;-70
2022/08/29 07:44:14;;;;;;;;;;;21.20;99.90;;;20.69;100.00;95959.84;10482972;28;1861;-68
2022/08/29 07:49:17;;;;;;;;;;;21.30;99.90;;;20.44;100.00;95967.88;10479966;28;1921;-68
2022/08/29 07:54:21;;;;;;;;;;;21.40;99.90;;;20.57;100.00;95963.31;10481906;28;1817;-68
2022/08/29 07:59:23;;;;;;;;;;;21.30;99.90;;;21.10;100.00;95967.19;10486579;28;1969;-68
2022/08/29 08:04:27;;;;;;;;;;;21.70;99.90;;;21.63;100.00;95975.69;10461439;28;1933;-69
2022/08/29 08:09:30;;;;;;;;;;;21.90;99.90;;;21.52;96.96;95981.59;10479374;28;1898;-68
2022/08/29 08:14:32;;;;;;;;;;;22.10;99.90;;;21.63;97.84;95981.16;10483813;28;1960;-68
2022/08/29 08:19:36;;;;;;;;;;;22.30;99.90;;;21.21;100.00;95975.78;10482724;28;1953;-70
2022/08/29 08:24:39;;;;;;;;;;;22.20;99.90;;;21.55;98.53;95982.84;10481065;28;1949;-68
2022/08/29 08:29:43;;;;;;;;;;;22.30;99.90;;;21.33;100.00;95986.00;10485363;28;1797;-68
2022/08/29 08:34:46;;;;;;;;;;;22.20;99.90;;;21.73;99.75;95986.19;10480096;28;2073;-69
2022/08/29 08:39:49;;;;;;;;;;;22.30;99.90;;;21.78;99.34;95984.03;10480131;28;1981;-69
2022/08/29 08:44:51;;;;;;;;;;;22.50;99.90;;;21.98;97.64;95976.88;10469920;28;1901;-70
2022/08/29 08:49:56;;;;;;;;;;;22.60;99.90;;;22.16;96.82;95980.22;10482367;28;2038;-68
2022/08/29 08:55:00;;;;;;;;;;;22.80;99.90;;;22.00;97.12;95985.53;10480240;28;1988;-68
2022/08/29 09:00:04;;;;;;;;;;;22.70;99.90;;;22.26;95.09;95985.22;10485039;28;2000;-68
2022/08/29 09:05:08;;;;;;;;;;;22.70;99.90;;;22.53;94.61;95980.97;10488913;28;2067;-70
2022/08/29 09:10:11;;;;;;;;;;;23.00;99.90;;;22.04;93.81;95980.97;10487270;28;2088;-69
2022/08/29 09:15:14;;;;;;;;;;;23.00;99.90;;;22.33;91.58;95984.63;10486347;28;2103;-67
2022/08/29 09:20:17;;;;;;;;;;;22.90;99.90;;;22.55;87.92;95978.69;10473163;28;2072;-68
2022/08/29 09:25:20;;;;;;;;;;;23.00;99.90;;;23.28;84.91;95972.16;10487869;28;1921;-69
2022/08/29 09:30:29;;;;;;;;;;;23.40;99.90;;;22.80;86.45;95975.88;10486880;28;2105;-67
2022/08/29 09:35:32;;;;;;;;;;;23.70;99.90;;;23.05;80.82;95976.63;10486046;28;2050;-68
2022/08/29 09:40:36;;;;;;;;;;;23.80;99.90;;;22.89;81.51;95971.06;10487080;28;2012;-72
2022/08/29 09:45:39;;;;;;;;;;;23.70;99.90;;;23.87;79.80;95976.09;10489794;28;2126;-67
2022/08/29 09:50:42;;;;;;;;;;;24.20;99.90;;;24.68;73.15;95970.94;10490239;28;2118;-68
2022/08/29 09:55:45;;;;;;;;;;;24.80;99.90;;;24.77;71.06;95972.34;10486477;28;2051;-67
2022/08/29 10:00:48;;;;;;;;;;;25.30;99.90;;;24.25;71.76;95969.97;10488940;28;1896;-67
2022/08/29 10:05:50;;;;;;;;;;;25.30;99.90;;;24.09;70.21;95958.97;10484218;28;2111;-69
2022/08/29 10:10:53;;;;;;;;;;;25.00;99.90;;;24.06;69.97;95961.66;10485468;28;2233;-68
2022/08/29 10:15:57;;;;;;;;;;;25.20;99.90;;;23.24;77.13;95954.03;10487772;28;2078;-68
2022/08/29 10:21:00;;;;;;;;;;;24.50;99.90;;;23.03;78.28;95960.53;10487965;28;2093;-68
2022/08/29 10:26:03;;;;;;;;;;;24.10;99.90;;;22.93;81.03;95955.53;10488744;28;2079;-68
2022/08/29 10:31:07;;;;;;;;;;;24.00;99.90;;;23.57;76.34;95962.75;10484102;28;2095;-68
2022/08/29 10:36:16;;;;;;;;;;;24.00;99.90;;;24.17;76.59;95963.50;10481268;28;2074;-68
2022/08/29 10:41:19;;;;;;;;;;;24.50;99.90;;;23.66;72.21;95966.16;10485839;28;2039;-68
2022/08/29 10:46:21;;;;;;;;;;;24.60;99.90;;;24.28;70.45;95964.53;10486131;28;2009;-68
2022/08/29 10:51:24;;;;;;;;;;;24.60;99.90;;;25.19;63.35;95966.13;10480831;28;2039;-68
2022/08/29 10:56:27;;;;;;;;;;;25.20;99.90;;;25.02;59.85;95963.81;10465045;28;2385;-69
2022/08/29 11:01:29;;;;;;;;;;;25.60;99.90;;;25.29;60.51;95951.81;10483785;28;2074;-67
2022/08/29 11:06:32;;;;;;;;;;;25.90;99.90;;;25.21;60.23;95957.56;10484919;28;2020;-68
2022/08/29 11:11:35;;;;;;;;;;;26.00;99.90;;;24.42;64.38;95963.31;10486258;28;2165;-73
2022/08/29 11:16:38;;;;;;;;;;;25.50;99.90;;;23.61;69.35;95960.13;10482962;28;2170;-72
2022/08/29 11:21:41;;;;;;;;;;;24.80;99.90;;;23.66;70.05;95960.66;10485796;28;2056;-68
2022/08/29 11:26:44;;;;;;;;;;;24.40;99.90;;;23.75;71.22;95948.75;10489297;28;2075;-68
2022/08/29 11:31:47;;;;;;;;;;;24.40;99.90;;;23.77;70.22;95949.97;10483291;28;2056;-68
2022/08/29 11:36:50;;;;;;;;;;;24.80;99.90;;;23.42;72.30;95956.13;10484092;28;2075;-69
2022/08/29 11:41:53;;;;;;;;;;;24.50;99.90;;;23.03;76.91;95957.81;10481854;28;2050;-68
2022/08/29 11:47:00;;;;;;;;;;;24.00;99.90;;;23.22;73.44;95948.09;10484659;28;2078;-69
2022/08/29 11:52:07;;;;;;;;;;;23.90;99.90;;;23.40;70.30;95946.63;10483151;28;2027;-68
2022/08/29 11:57:10;;;;;;;;;;;24.00;99.90;;;23.25;66.25;95944.66;10481877;28;2089;-69
2022/08/29 12:02:13;;;;;;;;;;;24.20;99.90;;;23.77;64.57;95938.19;10482499;28;2040;-68
2022/08/29 12:07:16;;;;;;;;;;;24.30;99.90;;;24.08;62.36;95938.19;10483946;28;2043;-68
2022/08/29 12:12:19;;;;;;;;;;;24.60;99.90;;;24.44;57.71;95928.03;10475986;28;2062;-68
2022/08/29 12:17:22;;;;;;;;;;;24.80;99.90;;;24.44;57.71;95934.34;10485292;28;1977;-68
2022/08/29 12:22:28;;;;;;;;;;;25.00;99.90;;;24.79;53.78;95937.03;10480979;28;1905;-67
2022/08/29 12:27:30;;;;;;;;;;;25.20;99.90;;;25.55;50.26;95929.09;10479497;28;1941;-68
2022/08/29 12:32:33;;;;;;;;;;;25.90;99.90;;;26.32;50.80;95927.19;10478812;28;2453;-67
2022/08/29 12:37:36;;;;;;;;;;;26.50;99.90;;;25.55;52.60;95925.53;10476172;28;2175;-67
2022/08/29 12:42:39;;;;;;;;;;;26.60;99.90;;;25.64;54.81;95923.34;10490271;28;2071;-67
2022/08/29 12:47:42;;;;;;;;;;;26.50;99.90;;;25.30;56.11;95917.63;10490703;28;2042;-69
2022/08/29 12:52:47;;;;;;;;;;;26.20;99.90;;;24.52;58.33;95933.31;10488313;28;2038;-69
2022/08/29 12:57:50;;;;;;;;;;;25.60;99.90;;;23.87;59.81;95919.25;10492847;28;1922;-69
2022/08/29 13:02:56;;;;;;;;;;;25.00;99.90;;;24.26;59.75;95916.63;10488809;28;2030;-68
2022/08/29 13:07:59;;;;;;;;;;;24.90;99.90;;;24.15;61.58;95910.06;10489722;28;2077;-68
2022/08/29 13:13:02;;;;;;;;;;;25.00;99.90;;;24.47;59.96;95902.59;10486052;28;2021;-69
2022/08/29 13:18:05;;;;;;;;;;;25.10;99.90;;;24.23;59.05;95906.34;10487736;28;2039;-68
2022/08/29 13:23:07;;;;;;;;;;;25.10;99.90;;;24.40;58.26;95894.19;10487027;28;1940;-68
2022/08/29 13:28:10;;;;;;;;;;;25.10;99.90;;;23.95;60.07;95896.28;10488708;28;2079;-71
2022/08/29 13:33:13;;;;;;;;;;;24.90;99.90;;;24.24;62.83;95897.75;10487728;28;1870;-67
2022/08/29 13:38:28;;;;;;;;;;;25.00;99.90;;;24.16;63.02;95895.97;10487226;28;1984;-67
2022/08/29 13:43:31;;;;;;;;;;;25.00;99.90;;;24.13;63.65;95893.97;10488163;28;1778;-69
2022/08/29 13:48:34;;;;;;;;;;;25.20;99.90;;;24.19;62.65;95889.00;10486187;28;2396;-67
2022/08/29 13:53:38;;;;;;;;;;;25.00;99.90;;;24.40;59.90;95883.19;10487211;28;2033;-67
2022/08/29 13:58:46;;;;;;;;;;;25.20;99.90;;;24.71;59.13;95876.78;10487672;28;2001;-68
2022/08/29 14:03:55;;;;;;;;;;;25.30;99.90;;;24.83;58.36;95873.88;10490387;28;2032;-68
2022/08/29 14:08:58;;;;;;;;;;;25.50;99.90;;;24.76;59.56;95873.75;10489126;28;2376;-67
2022/08/29 14:14:01;;;;;;;;;;;25.50;99.90;;;24.26;62.32;95862.47;10484961;28;2229;-69
2022/08/29 14:19:04;;;;;;;;;;;25.20;99.90;;;23.82;64.09;95863.81;10491413;28;1977;-67
2022/08/29 14:24:07;;;;;;;;;;;24.90;99.90;;;23.92;62.22;95857.75;10484510;28;2028;-68
2022/08/29 14:29:09;;;;;;;;;;;24.60;99.90;;;24.07;60.57;95854.22;10488604;28;1905;-68
2022/08/29 14:34:12;;;;;;;;;;;24.80;99.90;;;24.24;58.86;95842.81;10484493;28;1973;-68
2022/08/29 14:39:15;;;;;;;;;;;24.80;99.90;;;24.48;56.72;95841.75;10486712;28;1982;-68
2022/08/29 14:44:19;;;;;;;;;;;25.10;99.90;;;24.70;56.00;95834.75;10482640;28;2083;-68
2022/08/29 14:49:23;;;;;;;;;;;25.40;99.90;;;24.76;55.96;95838.00;10489109;28;2091;-68
2022/08/29 14:54:26;;;;;;;;;;;25.40;99.90;;;24.63;58.62;95837.38;10490043;28;1984;-76
2022/08/29 14:59:28;;;;;;;;;;;25.50;99.90;;;24.18;62.22;95833.28;10486717;28;1918;-68
2022/08/29 15:04:31;;;;;;;;;;;25.20;99.90;;;23.75;62.35;95836.22;10483138;28;2115;-75
2022/08/29 15:09:40;;;;;;;;;;;24.90;99.90;;;23.25;62.95;95843.19;10482335;28;1972;-73
2022/08/29 15:14:43;;;;;;;;;;;24.30;99.90;;;23.59;59.91;95841.69;10485064;28;2025;-71
2022/08/29 15:19:46;;;;;;;;;;;24.30;99.90;;;23.81;58.12;95841.06;10484513;28;2099;-67
2022/08/29 15:25:09;;;;;;;;;;;24.50;99.90;;;23.87;56.22;95834.16;10485981;28;2020;-74
2022/08/29 15:30:14;;;;;;;;;;;24.70;99.90;;;23.89;56.42;95826.34;10480226;28;2042;-68
2022/08/29 15:35:16;;;;;;;;;;;24.70;99.90;;;23.91;56.98;95823.25;10483440;28;1889;-67
2022/08/29 15:40:19;;;;;;;;;;;24.80;99.90;;;23.63;57.85;95813.22;10479335;28;2039;-68
2022/08/29 15:45:22;;;;;;;;;;;24.60;99.90;;;23.66;58.54;95817.97;10482736;28;2052;-68
2022/08/29 15:50:25;;;;;;;;;;;24.50;99.90;;;23.42;57.39;95815.41;10479309;28;2091;-68
2022/08/29 15:55:29;;;;;;;;;;;24.50;99.90;;;23.51;58.08;95807.78;10475197;28;2056;-75
2022/08/29 16:00:37;;;;;;;;;;;24.40;99.90;;;23.51;58.21;95809.75;10472533;28;2190;-79
2022/08/29 16:05:44;;;;;;;;;;;24.40;99.90;;;23.34;57.57;95817.16;10485628;28;2028;-78
2022/08/29 16:10:47;;;;;;;;;;;24.30;99.90;;;23.28;57.92;95804.06;10479411;28;1983;-81
2022/08/29 16:15:50;;;;;;;;;;;24.20;99.90;;;23.16;59.05;95811.25;10481202;28;1825;-79
2022/08/29 16:20:53;;;;;;;;;;;24.10;99.90;;;23.18;58.13;95814.44;10480702;28;2155;-81
2022/08/29 16:25:58;;;;;;;;;;;24.10;99.90;;;23.07;59.78;95809.84;10476747;28;1865;-82
2022/08/29 16:31:01;;;;;;;;;;;24.00;99.90;;;22.91;60.72;95807.09;10478142;28;2025;-81
2022/08/29 16:36:05;;;;;;;;;;;23.90;99.90;;;22.86;60.08;95812.78;10482740;28;2107;-82
2022/08/29 16:41:08;;;;;;;;;;;23.80;99.90;;;22.85;58.95;95813.94;10482737;28;2110;-82
2022/08/29 16:46:11;;;;;;;;;;;23.70;99.90;;;22.79;58.75;95813.41;10479166;28;2027;-80
2022/08/29 16:51:16;;;;;;;;;;;23.70;99.90;;;22.77;57.77;95809.41;10480454;28;1955;-82
2022/08/29 16:56:20;;;;;;;;;;;23.70;99.90;;;22.63;59.59;95805.13;10474285;28;2131;-82
2022/08/29 17:01:23;;;;;;;;;;;23.60;99.90;;;22.62;60.83;95803.53;10473035;28;2027;-81
2022/08/29 17:06:26;;;;;;;;;;;23.50;99.90;;;22.39;61.85;95805.25;10472388;28;1996;-81
2022/08/29 17:16:34;;;;;;;;;;;23.30;99.90;;;22.25;58.99;95824.00;10477267;28;2056;-73
2022/08/29 17:21:37;;;;;;;;;;;23.30;99.90;;;22.09;58.44;95819.28;10476620;28;2454;-66
2022/08/29 17:26:40;;;;;;;;;;;23.10;99.90;;;22.01;59.00;95811.16;10486258;28;1983;-66
2022/08/29 17:31:49;;;;;;;;;;;23.00;99.90;;;21.91;59.70;95817.13;10489483;28;2049;-67
2022/08/29 17:36:52;;;;;;;;;;;22.90;99.90;;;21.66;61.09;95813.63;10491583;28;2115;-67
2022/08/29 17:41:55;;;;;;;;;;;22.80;99.90;;;21.46;62.42;95818.06;10502134;28;2056;-67
2022/08/29 17:46:58;;;;;;;;;;;22.60;99.90;;;21.37;64.00;95812.69;10486688;28;2075;-67
2022/08/29 17:52:01;;;;;;;;;;;22.40;99.90;;;21.17;65.98;95811.63;10482149;28;2464;-68
2022/08/29 17:57:04;;;;;;;;;;;22.30;99.90;;;21.03;67.70;95809.22;10488825;28;2064;-67
2022/08/29 18:02:08;;;;;;;;;;;22.20;99.90;;;20.76;70.09;95807.94;10483217;28;1992;-68
2022/08/29 18:07:11;;;;;;;;;;;22.00;99.90;;;20.70;71.48;95806.56;10485826;28;2005;-67
2022/08/29 18:12:14;;;;;;;;;;;21.80;99.90;;;20.62;71.99;95814.84;10484740;28;2043;-67
2022/08/29 18:17:17;;;;;;;;;;;21.60;99.90;;;20.34;74.16;95828.22;10486474;28;2067;-67
2022/08/29 18:22:20;;;;;;;;;;;21.60;99.90;;;20.06;75.84;95838.91;10483003;28;2011;-66
2022/08/29 18:27:23;;;;;;;;;;;21.30;99.90;;;19.94;76.88;95837.69;10469492;28;2056;-66
2022/08/29 18:32:27;;;;;;;;;;;21.20;99.90;;;19.80;79.69;95850.78;10486129;28;1858;-69
2022/08/29 18:37:36;;;;;;;;;;;21.00;99.90;;;19.71;81.26;95858.22;10484724;28;2051;-68
2022/08/29 18:42:39;;;;;;;;;;;20.90;99.90;;;19.67;84.04;95852.63;10480468;28;2082;-70
2022/08/29 18:47:43;;;;;;;;;;;20.80;99.90;;;19.58;84.74;95853.78;10487097;28;1984;-70
2022/08/29 18:52:47;;;;;;;;;;;20.70;99.90;;;19.44;86.38;95862.16;10485678;28;1942;-68
2022/08/29 18:57:50;;;;;;;;;;;20.60;99.90;;;19.49;84.97;95863.91;10487418;28;2046;-72
2022/08/29 19:02:53;;;;;;;;;;;20.50;99.90;;;19.44;86.40;95867.63;10485622;28;2040;-69
2022/08/29 19:07:56;;;;;;;;;;;20.50;99.90;;;19.21;88.15;95864.34;10483627;28;2003;-69
2022/08/29 19:12:59;;;;;;;;;;;20.50;99.90;;;19.14;90.05;95870.28;10482033;28;2055;-69
2022/08/29 19:18:02;;;;;;;;;;;20.30;99.90;;;19.05;91.71;95877.72;10484573;28;2015;-68
2022/08/29 19:23:05;;;;;;;;;;;20.20;99.90;;;18.96;93.63;95884.28;10484497;28;1970;-68
2022/08/29 19:28:08;;;;;;;;;;;20.20;99.90;;;18.75;95.17;95887.69;10484993;28;1988;-67
2022/08/29 19:33:11;;;;;;;;;;;20.10;99.90;;;18.58;96.39;95895.88;10478109;28;2224;-67
2022/08/29 19:38:14;;;;;;;;;;;19.90;99.90;;;18.47;99.73;95895.38;10483327;28;2012;-66
2022/08/29 19:43:19;;;;;;;;;;;19.50;99.90;;;18.30;100.00;95893.47;10479333;28;2079;-70
2022/08/29 19:48:24;;;;;;;;;;;19.50;99.90;;;18.34;100.00;95902.59;10482940;28;2020;-72
2022/08/29 19:53:26;;;;;;;;;;;19.50;99.90;;;18.28;100.00;95912.03;10481713;28;2126;-74
2022/08/29 19:58:29;;;;;;;;;;;19.40;99.90;;;18.32;100.00;95902.13;10479238;28;2088;-73
2022/08/29 20:03:34;;;;;;;;;;;19.40;99.90;;;18.19;100.00;95916.66;10475928;28;2002;-74
2022/08/29 20:08:38;;;;;;;;;;;19.40;99.90;;;18.16;100.00;95917.31;10477244;28;1870;-74
2022/08/29 20:13:41;;;;;;;;;;;19.30;99.90;;;18.11;100.00;95912.00;10476034;28;2011;-74
2022/08/29 20:18:51;;;;;;;;;;;19.30;99.90;;;18.00;100.00;95911.50;10478375;28;2388;-73
2022/08/29 20:23:55;;;;;;;;;;;19.20;99.90;;;18.00;100.00;95916.16;10478952;28;1923;-71
2022/08/29 20:29:00;;;;;;;;;;;19.20;99.90;;;18.00;100.00;95908.00;10478124;28;2096;-72
2022/08/29 20:34:02;;;;;;;;;;;19.10;99.90;;;17.93;100.00;95913.91;10476483;28;2091;-72
2022/08/29 20:39:05;;;;;;;;;;;19.10;99.90;;;17.78;100.00;95901.56;10479922;28;2048;-73
2022/08/29 20:44:09;;;;;;;;;;;19.00;99.90;;;17.61;100.00;95906.91;10481198;28;1890;-73
2022/08/29 20:49:12;;;;;;;;;;;18.90;99.90;;;17.53;100.00;95904.97;10483343;28;2099;-73
2022/08/29 20:54:15;;;;;;;;;;;18.80;99.90;;;17.52;100.00;95908.81;10485115;28;2047;-72
2022/08/29 20:59:17;;;;;;;;;;;18.60;99.90;;;17.46;100.00;95910.84;10487123;28;2065;-74
2022/08/29 21:09:42;;;;;;;;;;;18.70;99.90;;;17.31;100.00;95918.63;10485936;28;2055;-75
2022/08/29 21:14:45;;;;;;;;;;;18.60;99.90;;;17.24;100.00;95913.63;10479965;28;1995;-75
2022/08/29 21:19:47;;;;;;;;;;;18.50;99.90;;;17.27;100.00;95916.53;10484962;28;1906;-73
2022/08/29 21:24:54;;;;;;;;;;;18.40;99.90;;;17.16;100.00;95922.53;10479297;28;2076;-73
2022/08/29 21:29:56;;;;;;;;;;;18.40;99.90;;;17.12;100.00;95919.66;10484823;28;2444;-71
2022/08/29 21:35:00;;;;;;;;;;;18.30;99.90;;;17.05;100.00;95924.72;10485364;28;2032;-73
2022/08/29 21:40:04;;;;;;;;;;;18.40;99.90;;;16.96;100.00;95918.44;10487087;28;2079;-72
2022/08/29 21:45:07;;;;;;;;;;;18.20;99.90;;;16.86;100.00;95924.94;10487945;28;2116;-72
2022/08/29 21:50:10;;;;;;;;;;;18.10;99.90;;;16.85;100.00;95927.94;10488677;28;1914;-72
2022/08/29 21:55:14;;;;;;;;;;;18.10;99.90;;;16.85;100.00;95922.50;10465128;28;2119;-73
2022/08/29 22:00:17;;;;;;;;;;;18.00;99.90;;;16.77;100.00;95925.97;10486138;28;2122;-72
2022/08/29 22:05:20;;;;;;;;;;;18.00;99.90;;;16.69;100.00;95928.28;10482651;28;2062;-74
2022/08/29 22:10:24;;;;;;;;;;;17.80;99.90;;;16.68;100.00;95929.41;10486663;28;2005;-73
2022/08/29 22:20:51;;;;;;;;;;;18.00;99.90;;;16.55;100.00;95929.47;10486745;28;2076;-72
2022/08/29 22:25:57;;;;;;;;;;;17.90;99.90;;;16.50;100.00;95927.66;10468945;28;2512;-72
2022/08/29 22:31:00;;;;;;;;;;;17.80;99.90;;;16.58;100.00;95931.56;10485557;28;2145;-74
2022/08/29 22:36:04;;;;;;;;;;;17.70;99.90;;;16.47;100.00;95930.97;10481514;28;2035;-73
2022/08/29 22:41:06;;;;;;;;;;;17.70;99.90;;;16.37;100.00;95933.94;10479254;28;2241;-74
2022/08/29 22:46:10;;;;;;;;;;;17.60;99.90;;;16.32;100.00;95929.44;10485494;28;1996;-73
2022/08/29 22:51:14;;;;;;;;;;;17.50;99.90;;;16.31;100.00;95937.88;10485128;28;2041;-71
2022/08/29 22:56:16;;;;;;;;;;;17.60;99.90;;;16.26;100.00;95949.66;10483099;28;2027;-71
2022/08/29 23:01:19;;;;;;;;;;;17.50;99.90;;;16.21;100.00;95942.41;10487349;28;2083;-73
2022/08/29 23:06:26;;;;;;;;;;;17.40;99.90;;;16.19;100.00;95936.50;10483048;28;2079;-73
2022/08/29 23:11:29;;;;;;;;;;;17.50;99.90;;;16.20;100.00;95938.09;10484933;28;2042;-72
2022/08/29 23:16:32;;;;;;;;;;;17.40;99.90;;;16.19;100.00;95933.78;10485253;28;2094;-73
2022/08/29 23:21:34;;;;;;;;;;;17.40;99.90;;;16.07;100.00;95938.94;10463206;28;2001;-74
2022/08/29 23:26:42;;;;;;;;;;;17.30;99.90;;;15.98;100.00;95942.69;10479427;28;2059;-73